Cosco Nagoya — 3ESJ8 — position and weather

sailwx.info

Track history (hours):
 
Tides and Currents Weather Stations Pressure Air Temp Water Temp Dewpoint Dewpoint Depression Visibility Wind Speed Wind Dir Waves Ship Positions

Cosco Nagoya

Last reported at 2014-Aug-21 15:10 UTC. Time now 2014-Aug-21 16:04 UTC.
Position N 36°55' W 076°20'.

Length 260 m; draft 10.2 m.

Type: Cargo ship. MMSI: 370320000.

Date/timePositionNaut miles runAvg speedWind from/ knotsBaromVisibWave heightAir tempDewpointWater temp
2014-Aug-21 15:10N 36°55' W 076°20'3 4.1
2014-Aug-21 14:22N 36°58' W 076°20'1113.0
2014-Aug-21 13:33N 36°59' W 076°07'1412.5
2014-Aug-21 12:26N 36°52' W 075°51'1111.6
2014-Aug-21 11:31N 36°48' W 075°39'1717.5
2014-Aug-21 10:32N 36°44' W 075°19'1717.6
2014-Aug-21 09:33N 36°52' W 074°60'1817.6
2014-Aug-21 08:33N 37°04' W 074°43'1818.2
2014-Aug-21 07:33N 37°21' W 074°36'1818.0
2014-Aug-21 06:33N 37°38' W 074°28'1817.8
2014-Aug-21 05:33N 37°54' W 074°18'1817.8
2014-Aug-21 04:33N 38°10' W 074°08'1918.6
2014-Aug-21 03:32N 38°28' W 073°60'1818.5
2014-Aug-21 02:33N 38°44' W 073°51'1918.6
2014-Aug-21 01:33N 39°02' W 073°42'1918.6
2014-Aug-21 00:33N 39°19' W 073°33'1918.8
2014-Aug-20 23:33N 39°37' W 073°25'1919.2
2014-Aug-20 22:33N 39°56' W 073°21'1817.6
2014-Aug-20 21:33N 40°11' W 073°32'1818.4
2014-Aug-20 20:33N 40°25' W 073°47'1413.8
2014-Aug-20 19:34N 40°34' W 074°02'7 7.1
2014-Aug-20 18:33N 40°39' W 074°09'2 2.2
2014-Aug-20 17:33N 40°41' W 074°09'0 0.0
2014-Aug-20 16:33N 40°41' W 074°09'0 0.0
2014-Aug-20 15:33N 40°41' W 074°09'0 0.0
2014-Aug-20 14:33N 40°41' W 074°09'0 0.0
2014-Aug-20 13:33N 40°41' W 074°09'0 0.0
2014-Aug-20 12:33N 40°41' W 074°09'0 0.0
2014-Aug-20 11:33N 40°41' W 074°09'0 0.0
2014-Aug-20 10:33N 40°41' W 074°09'0 0.0
2014-Aug-20 09:33N 40°41' W 074°09'0 0.0
2014-Aug-20 08:33N 40°41' W 074°09'0 0.0
2014-Aug-20 07:33N 40°41' W 074°09'0 0.0
2014-Aug-20 06:33N 40°41' W 074°09'0 0.0
2014-Aug-20 05:33N 40°41' W 074°09'0 0.0
2014-Aug-20 04:33N 40°41' W 074°09'0 0.0
2014-Aug-20 03:33N 40°41' W 074°09'0 0.0
2014-Aug-20 02:33N 40°41' W 074°09'0 0.0
2014-Aug-20 01:33N 40°41' W 074°09'0 0.0
2014-Aug-20 00:33N 40°41' W 074°09'0 0.0
2014-Aug-19 23:33N 40°41' W 074°09'0 0.0
2014-Aug-19 22:33N 40°41' W 074°09'0 0.0
2014-Aug-19 21:33N 40°41' W 074°09'0 0.0
2014-Aug-19 20:33N 40°41' W 074°09'0 0.0
2014-Aug-19 19:33N 40°41' W 074°09'0 0.0
2014-Aug-19 18:33N 40°41' W 074°09'0 0.0
2014-Aug-19 17:33N 40°41' W 074°09'0 0.0
2014-Aug-19 16:33N 40°41' W 074°09'0 0.0
2014-Aug-19 15:33N 40°41' W 074°09'0 0.0
2014-Aug-19 14:33N 40°41' W 074°09'0 0.0
2014-Aug-19 13:33N 40°41' W 074°09'1 0.7
2014-Aug-19 12:33N 40°40' W 074°08'4 4.1
2014-Aug-19 11:34N 40°39' W 074°03'1111.1
2014-Aug-19 10:33N 40°29' W 073°55'1010.1
2014-Aug-19 09:33N 40°27' W 073°42'1211.9
2014-Aug-19 08:33N 40°28' W 073°26'2119.6
2014-Aug-19 07:28N 40°30' W 072°58'1920.8
2014-Aug-19 06:33N 40°31' W 072°34'2120.9
2014-Aug-19 05:33N 40°31' W 072°06'2120.8
2014-Aug-19 04:33N 40°32' W 071°39'2120.8
2014-Aug-19 03:33N 40°33' W 071°11'2120.9
2014-Aug-19 02:33N 40°33' W 070°44'2120.7
2014-Aug-19 01:33N 40°34' W 070°17'2120.9
2014-Aug-19 00:33N 40°34' W 069°49'2121.4
2014-Aug-18 23:33N 40°35' W 069°21'2120.8
2014-Aug-18 22:33N 40°36' W 068°54'2220.8
2014-Aug-18 21:30N 40°38' W 068°25'  
2014-Aug-13 00:11N 50°18' W 001°06'1117.5
2014-Aug-12 23:33N 50°21' W 000°49'1616.4
2014-Aug-12 22:34N 50°24' W 000°24'1716.3
2014-Aug-12 21:31N 50°29' E 000°02'1616.8
2014-Aug-12 20:34N 50°33' E 000°26'1918.8
2014-Aug-12 19:34N 50°43' E 000°51'2220.3
2014-Aug-12 18:29N 50°58' E 001°17'1819.5
2014-Aug-12 17:33N 51°10' E 001°39'1817.5
2014-Aug-12 16:34N 51°24' E 001°55'1717.0
2014-Aug-12 15:34N 51°37' E 002°12'1716.8
2014-Aug-12 14:33N 51°51' E 002°28'1716.9
2014-Aug-12 13:33N 52°04' E 002°46'2119.9
2014-Aug-12 12:31N 52°20' E 003°07'2019.5
2014-Aug-12 11:30N 52°35' E 003°26'1919.8
2014-Aug-12 10:33N 52°49' E 003°47'2019.6
2014-Aug-12 09:33N 53°02' E 004°12'1818.2
2014-Aug-12 08:33N 53°17' E 004°30'1616.4
2014-Aug-12 07:33N 53°30' E 004°46'1716.9
2014-Aug-12 06:33N 53°37' E 005°12'1716.8
2014-Aug-12 05:33N 53°42' E 005°39'1818.1
2014-Aug-12 04:33N 53°48' E 006°08'5518.3
2014-Aug-12 01:33N 53°59' E 007°39'9 8.9
2014-Aug-12 00:33N 53°53' E 007°50'1515.0
2014-Aug-11 23:34N 53°45' E 008°12'1414.1
2014-Aug-11 22:33N 53°36' E 008°30'2 1.7
2014-Aug-11 21:31N 53°35' E 008°32'0 0.0
2014-Aug-11 20:31N 53°35' E 008°32'0 0.0
2014-Aug-11 19:31N 53°35' E 008°32'0 0.0
2014-Aug-11 18:31N 53°35' E 008°32'0 0.0
2014-Aug-11 17:31N 53°35' E 008°32'0 0.0
2014-Aug-11 16:31N 53°35' E 008°32'0 0.0
2014-Aug-11 15:31N 53°35' E 008°32'  
Track history (hours):
 
Tides and Currents Weather Stations Pressure Air Temp Water Temp Dewpoint Dewpoint Depression Visibility Wind Speed Wind Dir Waves Ship Positions

Cosco Nagoya

Last reported at 2014-Aug-21 15:10 UTC. Time now 2014-Aug-21 16:04 UTC.
Position N 36°55' W 076°20'.

Length 260 m; draft 10.2 m.

Type: Cargo ship. MMSI: 370320000.

Date/timePositionNaut miles runAvg speedWind from/ knotsBaromVisibWave heightAir tempDewpointWater temp
2014-Aug-21 15:10N 36°55' W 076°20'3 4.1
2014-Aug-21 14:22N 36°58' W 076°20'1113.0
2014-Aug-21 13:33N 36°59' W 076°07'1412.5
2014-Aug-21 12:26N 36°52' W 075°51'1111.6
2014-Aug-21 11:31N 36°48' W 075°39'1717.5
2014-Aug-21 10:32N 36°44' W 075°19'1717.6
2014-Aug-21 09:33N 36°52' W 074°60'1817.6
2014-Aug-21 08:33N 37°04' W 074°43'1818.2
2014-Aug-21 07:33N 37°21' W 074°36'1818.0
2014-Aug-21 06:33N 37°38' W 074°28'1817.8
2014-Aug-21 05:33N 37°54' W 074°18'1817.8
2014-Aug-21 04:33N 38°10' W 074°08'1918.6
2014-Aug-21 03:32N 38°28' W 073°60'1818.5
2014-Aug-21 02:33N 38°44' W 073°51'1918.6
2014-Aug-21 01:33N 39°02' W 073°42'1918.6
2014-Aug-21 00:33N 39°19' W 073°33'1918.8
2014-Aug-20 23:33N 39°37' W 073°25'1919.2
2014-Aug-20 22:33N 39°56' W 073°21'1817.6
2014-Aug-20 21:33N 40°11' W 073°32'1818.4
2014-Aug-20 20:33N 40°25' W 073°47'1413.8
2014-Aug-20 19:34N 40°34' W 074°02'7 7.1
2014-Aug-20 18:33N 40°39' W 074°09'2 2.2
2014-Aug-20 17:33N 40°41' W 074°09'0 0.0
2014-Aug-20 16:33N 40°41' W 074°09'0 0.0
2014-Aug-20 15:33N 40°41' W 074°09'0 0.0
2014-Aug-20 14:33N 40°41' W 074°09'0 0.0
2014-Aug-20 13:33N 40°41' W 074°09'0 0.0
2014-Aug-20 12:33N 40°41' W 074°09'0 0.0
2014-Aug-20 11:33N 40°41' W 074°09'0 0.0
2014-Aug-20 10:33N 40°41' W 074°09'0 0.0
2014-Aug-20 09:33N 40°41' W 074°09'0 0.0
2014-Aug-20 08:33N 40°41' W 074°09'0 0.0
2014-Aug-20 07:33N 40°41' W 074°09'0 0.0
2014-Aug-20 06:33N 40°41' W 074°09'0 0.0
2014-Aug-20 05:33N 40°41' W 074°09'0 0.0
2014-Aug-20 04:33N 40°41' W 074°09'0 0.0
2014-Aug-20 03:33N 40°41' W 074°09'0 0.0
2014-Aug-20 02:33N 40°41' W 074°09'0 0.0
2014-Aug-20 01:33N 40°41' W 074°09'0 0.0
2014-Aug-20 00:33N 40°41' W 074°09'0 0.0
2014-Aug-19 23:33N 40°41' W 074°09'0 0.0
2014-Aug-19 22:33N 40°41' W 074°09'0 0.0
2014-Aug-19 21:33N 40°41' W 074°09'0 0.0
2014-Aug-19 20:33N 40°41' W 074°09'0 0.0
2014-Aug-19 19:33N 40°41' W 074°09'0 0.0
2014-Aug-19 18:33N 40°41' W 074°09'0 0.0
2014-Aug-19 17:33N 40°41' W 074°09'0 0.0
2014-Aug-19 16:33N 40°41' W 074°09'0 0.0
2014-Aug-19 15:33N 40°41' W 074°09'0 0.0
2014-Aug-19 14:33N 40°41' W 074°09'0 0.0
2014-Aug-19 13:33N 40°41' W 074°09'1 0.7
2014-Aug-19 12:33N 40°40' W 074°08'4 4.1
2014-Aug-19 11:34N 40°39' W 074°03'1111.1
2014-Aug-19 10:33N 40°29' W 073°55'1010.1
2014-Aug-19 09:33N 40°27' W 073°42'1211.9
2014-Aug-19 08:33N 40°28' W 073°26'2119.6
2014-Aug-19 07:28N 40°30' W 072°58'1920.8
2014-Aug-19 06:33N 40°31' W 072°34'2120.9
2014-Aug-19 05:33N 40°31' W 072°06'2120.8
2014-Aug-19 04:33N 40°32' W 071°39'2120.8
2014-Aug-19 03:33N 40°33' W 071°11'2120.9
2014-Aug-19 02:33N 40°33' W 070°44'2120.7
2014-Aug-19 01:33N 40°34' W 070°17'2120.9
2014-Aug-19 00:33N 40°34' W 069°49'2121.4
2014-Aug-18 23:33N 40°35' W 069°21'2120.8
2014-Aug-18 22:33N 40°36' W 068°54'2220.8
2014-Aug-18 21:30N 40°38' W 068°25'  
2014-Aug-13 00:11N 50°18' W 001°06'1117.5
2014-Aug-12 23:33N 50°21' W 000°49'1616.4
2014-Aug-12 22:34N 50°24' W 000°24'1716.3
2014-Aug-12 21:31N 50°29' E 000°02'1616.8
2014-Aug-12 20:34N 50°33' E 000°26'1918.8
2014-Aug-12 19:34N 50°43' E 000°51'2220.3
2014-Aug-12 18:29N 50°58' E 001°17'1819.5
2014-Aug-12 17:33N 51°10' E 001°39'1817.5
2014-Aug-12 16:34N 51°24' E 001°55'1717.0
2014-Aug-12 15:34N 51°37' E 002°12'1716.8
2014-Aug-12 14:33N 51°51' E 002°28'1716.9
2014-Aug-12 13:33N 52°04' E 002°46'2119.9
2014-Aug-12 12:31N 52°20' E 003°07'2019.5
2014-Aug-12 11:30N 52°35' E 003°26'1919.8
2014-Aug-12 10:33N 52°49' E 003°47'2019.6
2014-Aug-12 09:33N 53°02' E 004°12'1818.2
2014-Aug-12 08:33N 53°17' E 004°30'1616.4
2014-Aug-12 07:33N 53°30' E 004°46'1716.9
2014-Aug-12 06:33N 53°37' E 005°12'1716.8
2014-Aug-12 05:33N 53°42' E 005°39'1818.1
2014-Aug-12 04:33N 53°48' E 006°08'5518.3
2014-Aug-12 01:33N 53°59' E 007°39'9 8.9
2014-Aug-12 00:33N 53°53' E 007°50'1515.0
2014-Aug-11 23:34N 53°45' E 008°12'1414.1
2014-Aug-11 22:33N 53°36' E 008°30'2 1.7
2014-Aug-11 21:31N 53°35' E 008°32'0 0.0
2014-Aug-11 20:31N 53°35' E 008°32'0 0.0
2014-Aug-11 19:31N 53°35' E 008°32'0 0.0
2014-Aug-11 18:31N 53°35' E 008°32'0 0.0
2014-Aug-11 17:31N 53°35' E 008°32'0 0.0
2014-Aug-11 16:31N 53°35' E 008°32'0 0.0
2014-Aug-11 15:31N 53°35' E 008°32'  

Dump ship's entire track history